createdAt,value
2018-12-10T00:02:26.750Z,9.50
2018-12-10T00:04:55.291Z,9.60
2018-12-10T00:07:23.844Z,9.60
2018-12-10T00:09:52.428Z,9.60
2018-12-10T00:12:21.039Z,9.50
2018-12-10T00:14:49.484Z,9.50
2018-12-10T00:17:17.961Z,9.50
2018-12-10T00:19:46.554Z,9.50
2018-12-10T00:22:14.981Z,9.40
2018-12-10T00:24:43.538Z,9.40
2018-12-10T00:27:12.303Z,9.40
2018-12-10T00:29:40.749Z,9.40
2018-12-10T00:32:09.232Z,9.30
2018-12-10T00:34:37.681Z,9.30
2018-12-10T00:37:06.143Z,9.30
2018-12-10T00:39:34.599Z,9.30
2018-12-10T00:42:03.105Z,9.20
2018-12-10T00:44:31.550Z,9.20
2018-12-10T00:47:00.122Z,9.10
2018-12-10T00:49:28.718Z,9.10
2018-12-10T00:51:57.184Z,9.10
2018-12-10T00:54:25.743Z,9.10
2018-12-10T00:56:54.257Z,9.10
2018-12-10T00:59:22.777Z,9.10
2018-12-10T01:01:51.212Z,9.10
2018-12-10T01:04:19.792Z,9.10
2018-12-10T01:06:48.290Z,9.10
2018-12-10T01:09:16.746Z,9.10
2018-12-10T01:11:45.282Z,9.20
2018-12-10T01:14:13.716Z,9.20
2018-12-10T01:16:42.391Z,9.20
2018-12-10T01:19:10.975Z,9.20
2018-12-10T01:21:39.590Z,9.20
2018-12-10T01:24:07.983Z,9.20
2018-12-10T01:26:36.474Z,9.20
2018-12-10T01:29:04.902Z,9.30
2018-12-10T01:31:33.482Z,9.30
2018-12-10T01:34:02.003Z,9.30
2018-12-10T01:36:30.483Z,9.30
2018-12-10T01:38:58.903Z,9.40
2018-12-10T01:41:27.475Z,9.40
2018-12-10T01:43:55.938Z,9.40
2018-12-10T01:46:24.388Z,9.40
2018-12-10T01:48:52.934Z,9.40
2018-12-10T01:51:21.491Z,9.30
2018-12-10T01:53:49.895Z,9.30
2018-12-10T01:56:18.407Z,9.30
2018-12-10T01:58:46.877Z,9.20
2018-12-10T02:01:15.446Z,9.20
2018-12-10T02:03:43.964Z,9.30
2018-12-10T02:06:12.421Z,9.30
2018-12-10T02:08:41.056Z,9.20
2018-12-10T02:11:09.536Z,9.20
2018-12-10T02:13:38.014Z,9.30
2018-12-10T02:16:06.466Z,9.30
2018-12-10T02:18:34.939Z,9.30
2018-12-10T02:21:03.382Z,9.30
2018-12-10T02:23:31.823Z,9.40
2018-12-10T02:26:00.608Z,9.40
2018-12-10T02:28:34.333Z,9.40
2018-12-10T02:31:03.093Z,9.50
2018-12-10T02:33:31.640Z,9.60
2018-12-10T02:36:00.075Z,9.60
2018-12-10T02:38:28.563Z,9.60
2018-12-10T02:40:57.137Z,9.70
2018-12-10T02:43:25.559Z,9.80
2018-12-10T02:45:54.060Z,9.80
2018-12-10T02:48:22.530Z,9.90
2018-12-10T02:50:51.233Z,9.90
2018-12-10T02:53:19.755Z,9.90
2018-12-10T02:55:48.256Z,9.90
2018-12-10T02:58:16.708Z,10.00
2018-12-10T03:00:45.180Z,10.00
2018-12-10T03:03:13.747Z,10.00
2018-12-10T03:05:42.284Z,10.10
2018-12-10T03:08:10.804Z,10.10
2018-12-10T03:10:39.242Z,10.10
2018-12-10T03:13:07.681Z,10.10
2018-12-10T03:15:36.308Z,10.00
2018-12-10T03:18:04.783Z,10.00
2018-12-10T03:20:33.289Z,10.00
2018-12-10T03:23:01.791Z,10.00
2018-12-10T03:25:30.277Z,10.00
2018-12-10T03:27:58.809Z,9.90
2018-12-10T03:30:27.454Z,9.90
2018-12-10T03:32:55.958Z,9.90
2018-12-10T03:35:24.598Z,9.90
2018-12-10T03:37:53.078Z,9.90
2018-12-10T03:40:21.594Z,9.90
2018-12-10T03:42:50.031Z,9.90
2018-12-10T03:45:18.650Z,9.90
2018-12-10T03:47:47.344Z,9.90
2018-12-10T03:50:15.821Z,10.00
2018-12-10T03:52:44.301Z,10.00
2018-12-10T03:55:12.749Z,10.00
2018-12-10T03:57:41.173Z,10.00
2018-12-10T04:00:09.871Z,9.90
2018-12-10T04:02:38.339Z,10.00
2018-12-10T04:05:06.839Z,10.00
2018-12-10T04:07:35.401Z,10.00
2018-12-10T04:10:04.107Z,10.00
2018-12-10T04:12:32.744Z,10.00
2018-12-10T04:15:01.248Z,10.00
2018-12-10T04:17:29.703Z,10.00
2018-12-10T04:19:58.135Z,10.00
2018-12-10T04:22:26.730Z,10.00
2018-12-10T04:24:55.261Z,10.00
2018-12-10T04:27:23.750Z,10.00
2018-12-10T04:29:52.244Z,10.00
2018-12-10T04:32:20.761Z,10.00
2018-12-10T04:34:49.222Z,10.00
2018-12-10T04:37:17.856Z,10.00
2018-12-10T04:39:46.319Z,10.00
2018-12-10T04:42:14.794Z,10.00
2018-12-10T04:44:43.322Z,9.90
2018-12-10T04:47:11.774Z,9.90
2018-12-10T04:49:40.212Z,9.90
2018-12-10T04:52:08.739Z,9.90
2018-12-10T04:54:38.418Z,9.90
2018-12-10T04:57:07.289Z,9.90
2018-12-10T04:59:35.766Z,9.90
2018-12-10T05:02:04.295Z,9.90
2018-12-10T05:04:32.720Z,9.90
2018-12-10T05:07:01.251Z,9.90
2018-12-10T05:09:29.706Z,9.90
2018-12-10T05:11:58.188Z,9.90
2018-12-10T05:14:26.682Z,9.90
2018-12-10T05:16:55.115Z,9.80
2018-12-10T05:19:23.708Z,9.80
2018-12-10T05:21:52.384Z,9.80
2018-12-10T05:24:20.848Z,9.80
2018-12-10T05:26:49.271Z,9.80
2018-12-10T05:29:17.784Z,9.80
2018-12-10T05:31:46.351Z,9.70
2018-12-10T05:34:14.799Z,9.70
2018-12-10T05:36:43.290Z,9.70
2018-12-10T05:39:11.766Z,9.70
2018-12-10T05:41:40.488Z,9.70
2018-12-10T05:44:08.961Z,9.70
2018-12-10T05:46:37.394Z,9.60
2018-12-10T05:49:05.833Z,9.60
2018-12-10T05:51:34.452Z,9.60
2018-12-10T05:54:03.209Z,9.60
2018-12-10T05:56:31.747Z,9.50
2018-12-10T05:59:00.251Z,9.50
2018-12-10T06:01:28.677Z,9.50
2018-12-10T06:03:57.251Z,9.50
2018-12-10T06:06:25.846Z,9.50
2018-12-10T06:08:54.310Z,9.50
2018-12-10T06:11:22.745Z,9.40
2018-12-10T06:13:51.264Z,9.40
2018-12-10T06:16:19.744Z,9.50
2018-12-10T06:18:48.172Z,9.50
2018-12-10T06:21:16.683Z,9.50
2018-12-10T06:23:45.285Z,9.50
2018-12-10T06:26:13.742Z,9.40
2018-12-10T06:28:43.734Z,9.40
2018-12-10T06:31:12.398Z,9.40
2018-12-10T06:33:40.879Z,9.50
2018-12-10T06:36:09.403Z,9.40
2018-12-10T06:38:37.996Z,9.40
2018-12-10T06:41:06.459Z,9.40
2018-12-10T06:43:35.016Z,9.30
2018-12-10T06:46:03.485Z,9.30
2018-12-10T06:48:31.930Z,9.30
2018-12-10T06:51:00.468Z,9.30
2018-12-10T06:53:29.012Z,9.30
2018-12-10T06:55:57.564Z,9.30
2018-12-10T06:58:26.082Z,9.30
2018-12-10T07:00:54.551Z,9.30
2018-12-10T07:03:22.970Z,9.30
2018-12-10T07:05:51.456Z,9.30
2018-12-10T07:08:19.917Z,9.30
2018-12-10T07:10:48.382Z,9.20
2018-12-10T07:13:17.069Z,9.20
2018-12-10T07:15:45.548Z,9.20
2018-12-10T07:18:14.005Z,9.20
2018-12-10T07:20:42.454Z,9.20
2018-12-10T07:23:10.927Z,9.20
2018-12-10T07:25:39.359Z,9.20
2018-12-10T07:28:07.946Z,9.20
2018-12-10T07:30:41.388Z,9.10
2018-12-10T07:33:06.816Z,9.20
2018-12-10T07:35:35.488Z,9.20
2018-12-10T07:38:03.903Z,9.20
2018-12-10T07:40:32.320Z,9.30
2018-12-10T07:43:01.006Z,9.30
2018-12-10T07:45:29.476Z,9.30
2018-12-10T07:47:57.919Z,9.30
2018-12-10T07:50:26.367Z,9.30
2018-12-10T07:52:54.806Z,9.30
2018-12-10T07:55:23.513Z,9.30
2018-12-10T07:57:54.023Z,9.30
2018-12-10T08:00:22.499Z,9.30
2018-12-10T08:02:51.035Z,9.30
2018-12-10T08:05:19.523Z,9.40
2018-12-10T08:07:47.937Z,9.40
2018-12-10T08:10:16.420Z,9.40
2018-12-10T08:12:44.924Z,9.40
2018-12-10T08:15:13.384Z,9.50
2018-12-10T08:17:41.862Z,9.50
2018-12-10T08:20:10.382Z,9.50
2018-12-10T08:22:38.832Z,9.60
2018-12-10T08:25:07.548Z,9.60
2018-12-10T08:27:36.160Z,9.60
2018-12-10T08:30:05.671Z,9.70
2018-12-10T08:32:34.122Z,9.70
2018-12-10T08:35:02.607Z,9.70
2018-12-10T08:37:31.073Z,9.80
2018-12-10T08:39:59.527Z,9.80
2018-12-10T08:42:28.131Z,9.90
2018-12-10T08:44:56.568Z,9.90
2018-12-10T08:47:25.066Z,10.00
2018-12-10T08:49:53.563Z,10.00
2018-12-10T08:52:22.024Z,10.00
2018-12-10T08:54:50.487Z,10.00
2018-12-10T08:57:19.018Z,10.10
2018-12-10T08:59:47.467Z,10.10
2018-12-10T09:02:15.912Z,10.20
2018-12-10T09:04:44.573Z,10.20
2018-12-10T09:07:13.049Z,10.30
2018-12-10T09:09:41.601Z,10.30
2018-12-10T09:12:10.174Z,10.40
2018-12-10T09:14:38.631Z,10.50
2018-12-10T09:17:07.120Z,10.50
2018-12-10T09:19:35.686Z,10.50
2018-12-10T09:22:04.299Z,10.60
2018-12-10T09:24:32.755Z,10.60
2018-12-10T09:27:01.254Z,10.60
2018-12-10T09:29:29.752Z,10.60
2018-12-10T09:31:58.229Z,10.60
2018-12-10T09:34:26.759Z,10.60
2018-12-10T09:36:55.234Z,10.70
2018-12-10T09:39:23.888Z,10.70
2018-12-10T09:41:52.551Z,10.70
2018-12-10T09:44:21.151Z,10.70
2018-12-10T09:46:49.689Z,10.80
2018-12-10T09:49:18.408Z,10.90
2018-12-10T09:51:47.054Z,10.90
2018-12-10T09:54:15.715Z,10.90
2018-12-10T09:56:44.383Z,11.00
2018-12-10T09:59:12.998Z,11.00
2018-12-10T10:01:41.597Z,11.00
2018-12-10T10:04:11.143Z,11.10
2018-12-10T10:06:39.587Z,11.10
2018-12-10T10:09:08.215Z,11.10
2018-12-10T10:11:36.716Z,11.10
2018-12-10T10:14:05.162Z,11.20
2018-12-10T10:16:33.681Z,11.20
2018-12-10T10:19:02.169Z,11.20
2018-12-10T10:21:30.634Z,11.20
2018-12-10T10:23:59.591Z,11.20
2018-12-10T10:26:28.359Z,11.20
2018-12-10T10:28:56.848Z,11.20
2018-12-10T10:31:25.275Z,11.20
2018-12-10T10:33:53.783Z,11.30
2018-12-10T10:36:22.397Z,11.30
2018-12-10T10:38:50.905Z,11.30
2018-12-10T10:41:19.624Z,11.30
2018-12-10T10:43:48.212Z,11.30
2018-12-10T10:46:16.661Z,11.30
2018-12-10T10:48:45.139Z,11.40
2018-12-10T10:51:13.608Z,11.40
2018-12-10T10:53:42.076Z,11.40
2018-12-10T10:56:10.594Z,11.40
2018-12-10T10:58:39.263Z,11.40
2018-12-10T11:01:13.202Z,11.40
2018-12-10T11:03:41.751Z,11.40
2018-12-10T11:06:10.224Z,11.50
2018-12-10T11:08:38.695Z,11.50
2018-12-10T11:11:07.222Z,11.50
2018-12-10T11:14:38.737Z,11.50
2018-12-10T11:17:07.318Z,11.50
2018-12-10T11:19:35.802Z,11.50
2018-12-10T11:22:04.451Z,11.60
2018-12-10T11:24:32.946Z,11.60
2018-12-10T11:27:01.374Z,11.60
2018-12-10T11:29:29.939Z,11.60
2018-12-10T11:31:58.405Z,11.60
2018-12-10T11:34:26.988Z,11.60
2018-12-10T11:36:55.497Z,11.70
2018-12-10T11:39:23.960Z,11.70
2018-12-10T11:41:52.407Z,11.70
2018-12-10T11:44:20.944Z,11.70
2018-12-10T11:46:49.491Z,11.70
2018-12-10T11:49:17.960Z,11.70
2018-12-10T11:51:46.493Z,11.70
2018-12-10T11:54:14.945Z,11.70
2018-12-10T11:56:43.502Z,11.80
2018-12-10T11:59:12.039Z,11.80
2018-12-10T12:01:40.652Z,11.80
2018-12-10T12:04:09.083Z,11.70
2018-12-10T12:06:37.593Z,11.70
2018-12-10T12:09:06.980Z,11.70
2018-12-10T12:11:35.443Z,11.70
2018-12-10T12:14:04.119Z,11.70
2018-12-10T12:16:32.742Z,11.70
2018-12-10T12:19:01.207Z,11.70
2018-12-10T12:21:29.827Z,11.70
2018-12-10T12:23:58.295Z,11.70
2018-12-10T12:26:26.744Z,11.70
2018-12-10T12:28:55.390Z,11.70
2018-12-10T12:31:23.835Z,11.70
2018-12-10T12:33:52.335Z,11.70
2018-12-10T12:36:20.953Z,11.70
2018-12-10T12:38:49.543Z,11.70
2018-12-10T12:41:18.047Z,11.80
2018-12-10T12:43:46.636Z,11.80
2018-12-10T12:46:15.113Z,11.80
2018-12-10T12:48:43.564Z,11.80
2018-12-10T12:51:12.142Z,11.70
2018-12-10T12:53:40.625Z,11.80
2018-12-10T12:56:09.108Z,11.70
2018-12-10T12:58:37.638Z,11.70
2018-12-10T13:01:06.214Z,11.80
2018-12-10T13:03:34.753Z,11.80
2018-12-10T13:06:06.745Z,11.80
2018-12-10T13:08:33.764Z,11.80
2018-12-10T13:11:02.184Z,11.80
2018-12-10T13:13:30.685Z,11.80
2018-12-10T13:15:59.101Z,11.80
2018-12-10T13:18:27.553Z,11.80
2018-12-10T13:20:56.049Z,11.80
2018-12-10T13:23:24.675Z,11.80
2018-12-10T13:25:53.376Z,11.80
2018-12-10T13:28:21.871Z,11.80
2018-12-10T13:30:50.289Z,11.80
2018-12-10T13:33:18.755Z,11.80
2018-12-10T13:35:47.403Z,11.80
2018-12-10T13:38:15.972Z,11.80
2018-12-10T13:40:44.550Z,11.80
2018-12-10T13:43:13.075Z,11.70
2018-12-10T13:45:41.643Z,11.70
2018-12-10T13:48:10.084Z,11.70
2018-12-10T13:50:38.606Z,11.70
2018-12-10T13:53:07.085Z,11.70
2018-12-10T13:55:35.527Z,11.70
2018-12-10T13:58:04.067Z,11.70
2018-12-10T14:00:32.539Z,11.70
2018-12-10T14:03:08.236Z,11.60
2018-12-10T14:05:36.677Z,11.60
2018-12-10T14:08:05.156Z,11.60
2018-12-10T14:10:33.659Z,11.50
2018-12-10T14:13:02.088Z,11.50
2018-12-10T14:15:30.571Z,11.50
2018-12-10T14:17:59.033Z,11.50
2018-12-10T14:20:27.540Z,11.50
2018-12-10T14:22:56.006Z,11.50
2018-12-10T14:25:25.987Z,11.40
2018-12-10T14:27:54.608Z,11.40
2018-12-10T14:30:23.540Z,11.40
2018-12-10T14:32:52.196Z,11.40
2018-12-10T14:35:20.869Z,11.30
2018-12-10T14:37:49.320Z,11.30
2018-12-10T14:40:17.843Z,11.30
2018-12-10T14:42:52.796Z,11.30
2018-12-10T14:45:21.482Z,11.20
2018-12-10T14:47:55.694Z,11.20
2018-12-10T14:50:24.553Z,11.20
2018-12-10T14:52:53.581Z,11.10
2018-12-10T14:55:22.243Z,11.10
2018-12-10T14:57:50.903Z,11.10
2018-12-10T15:00:19.384Z,11.10
2018-12-10T15:02:48.109Z,11.00
2018-12-10T15:05:16.626Z,11.00
2018-12-10T15:07:45.084Z,11.00
2018-12-10T15:10:13.585Z,10.90
2018-12-10T15:12:42.243Z,10.90
2018-12-10T15:15:11.262Z,10.80
2018-12-10T15:17:39.831Z,10.80
2018-12-10T15:20:14.120Z,10.80
2018-12-10T15:22:42.638Z,10.70
2018-12-10T15:25:11.404Z,10.70
2018-12-10T15:27:39.967Z,10.60
2018-12-10T15:30:11.391Z,10.60
2018-12-10T15:32:39.909Z,10.60
2018-12-10T15:35:09.348Z,10.50
2018-12-10T15:37:37.822Z,10.50
2018-12-10T15:40:07.515Z,10.50
2018-12-10T15:42:36.041Z,10.40
2018-12-10T15:45:05.615Z,10.30
2018-12-10T15:47:34.083Z,10.30
2018-12-10T15:50:02.641Z,10.30
2018-12-10T15:52:31.135Z,10.20
2018-12-10T15:54:59.615Z,10.20
2018-12-10T15:57:28.398Z,10.10
2018-12-10T15:59:56.831Z,10.10
2018-12-10T16:02:25.346Z,10.10
2018-12-10T16:04:53.957Z,10.00
2018-12-10T16:07:22.449Z,10.00
2018-12-10T16:09:50.943Z,9.90
2018-12-10T16:12:19.635Z,9.90
2018-12-10T16:14:48.068Z,9.90
2018-12-10T16:17:16.583Z,9.80
2018-12-10T16:19:45.123Z,9.80
2018-12-10T16:22:13.570Z,9.80
2018-12-10T16:24:42.078Z,9.80
2018-12-10T16:27:11.180Z,9.70
2018-12-10T16:29:39.629Z,9.70
2018-12-10T16:32:08.115Z,9.60
2018-12-10T16:34:39.842Z,9.60
2018-12-10T16:37:08.271Z,9.60
2018-12-10T16:39:36.748Z,9.60
2018-12-10T16:42:05.360Z,9.60
2018-12-10T16:44:33.994Z,9.60
2018-12-10T16:47:02.441Z,9.50
2018-12-10T16:49:30.943Z,9.50
2018-12-10T16:51:59.386Z,9.50
2018-12-10T16:54:28.011Z,9.40
2018-12-10T16:56:56.487Z,9.40
2018-12-10T16:59:25.051Z,9.30
2018-12-10T17:01:53.572Z,9.40
2018-12-10T17:04:22.093Z,9.30
2018-12-10T17:06:50.599Z,9.30
2018-12-10T17:09:19.281Z,9.30
2018-12-10T17:11:48.436Z,9.20
2018-12-10T17:14:17.366Z,9.20
2018-12-10T17:16:46.050Z,9.20
2018-12-10T17:19:14.671Z,9.20
2018-12-10T17:21:43.399Z,9.20
2018-12-10T17:24:11.856Z,9.20
2018-12-10T17:26:40.369Z,9.20
2018-12-10T17:29:09.259Z,9.20
2018-12-10T17:31:37.703Z,9.20
2018-12-10T17:34:06.321Z,9.10
2018-12-10T17:36:34.802Z,9.10
2018-12-10T17:39:07.636Z,9.10
2018-12-10T17:41:37.243Z,9.00
2018-12-10T17:44:05.732Z,9.00
2018-12-10T17:46:34.221Z,9.10
2018-12-10T17:49:02.733Z,9.10
2018-12-10T17:51:31.193Z,9.10
2018-12-10T17:54:00.340Z,9.10
2018-12-10T17:56:29.360Z,9.10
2018-12-10T17:58:58.030Z,9.10
2018-12-10T18:01:26.572Z,9.10
2018-12-10T18:03:55.011Z,9.10
2018-12-10T18:06:23.436Z,9.10
2018-12-10T18:08:52.028Z,9.10
2018-12-10T18:11:20.599Z,9.00
2018-12-10T18:13:49.047Z,9.10
2018-12-10T18:16:17.589Z,9.00
2018-12-10T18:18:46.009Z,9.00
2018-12-10T18:21:14.463Z,9.00
2018-12-10T18:23:42.984Z,9.00
2018-12-10T18:26:11.469Z,9.00
2018-12-10T18:28:39.913Z,9.00
2018-12-10T18:31:08.371Z,9.00
2018-12-10T18:33:37.227Z,8.90
2018-12-10T18:36:05.776Z,8.90
2018-12-10T18:38:34.243Z,8.90
2018-12-10T18:41:02.739Z,8.90
2018-12-10T18:43:31.254Z,8.90
2018-12-10T18:45:59.878Z,8.90
2018-12-10T18:48:28.322Z,8.80
2018-12-10T18:50:57.084Z,8.80
2018-12-10T18:53:25.774Z,8.80
2018-12-10T18:55:54.355Z,8.80
2018-12-10T18:58:22.870Z,8.80
2018-12-10T19:00:54.462Z,8.80
2018-12-10T19:03:22.955Z,8.70
2018-12-10T19:05:51.436Z,8.70
2018-12-10T19:08:19.905Z,8.70
2018-12-10T19:10:48.397Z,8.70
2018-12-10T19:13:16.847Z,8.70
2018-12-10T19:15:45.855Z,8.70
2018-12-10T19:18:14.502Z,8.60
2018-12-10T19:20:43.049Z,8.60
2018-12-10T19:23:11.575Z,8.70
2018-12-10T19:25:40.196Z,8.60
2018-12-10T19:28:08.636Z,8.60
2018-12-10T19:30:37.167Z,8.60
2018-12-10T19:33:05.593Z,8.60
2018-12-10T19:35:34.040Z,8.60
2018-12-10T19:38:02.572Z,8.60
2018-12-10T19:40:31.039Z,8.60
2018-12-10T19:42:59.769Z,8.60
2018-12-10T19:45:28.407Z,8.50
2018-12-10T19:47:56.881Z,8.50
2018-12-10T19:50:25.338Z,8.50
2018-12-10T19:52:53.816Z,8.50
2018-12-10T19:55:22.287Z,8.50
2018-12-10T19:57:50.913Z,8.50
2018-12-10T20:00:19.605Z,8.50
2018-12-10T20:02:48.144Z,8.40
2018-12-10T20:05:16.884Z,8.40
2018-12-10T20:07:45.405Z,8.40
2018-12-10T20:10:13.859Z,8.40
2018-12-10T20:12:42.307Z,8.40
2018-12-10T20:15:10.993Z,8.30
2018-12-10T20:17:39.391Z,8.30
2018-12-10T20:20:09.195Z,8.30
2018-12-10T20:22:37.669Z,8.20
2018-12-10T20:25:06.402Z,8.20
2018-12-10T20:27:34.971Z,8.10
2018-12-10T20:30:06.854Z,8.10
2018-12-10T20:32:35.427Z,8.10
2018-12-10T20:35:04.084Z,8.00
2018-12-10T20:37:32.678Z,8.00
2018-12-10T20:40:01.165Z,8.00
2018-12-10T20:42:29.609Z,8.00
2018-12-10T20:44:58.105Z,7.90
2018-12-10T20:47:26.542Z,7.90
2018-12-10T20:49:55.172Z,7.90
2018-12-10T20:52:23.666Z,7.90
2018-12-10T20:54:52.172Z,7.90
2018-12-10T20:57:20.622Z,7.90
2018-12-10T20:59:49.156Z,7.90
2018-12-10T21:02:17.667Z,7.90
2018-12-10T21:04:46.124Z,7.90
2018-12-10T21:07:14.664Z,7.90
2018-12-10T21:09:43.136Z,7.90
2018-12-10T21:12:11.810Z,7.90
2018-12-10T21:14:40.403Z,7.90
2018-12-10T21:17:08.882Z,7.90
2018-12-10T21:19:37.358Z,7.90
2018-12-10T21:22:05.929Z,7.90
2018-12-10T21:24:34.372Z,7.90
2018-12-10T21:27:03.331Z,7.90
2018-12-10T21:29:31.900Z,7.90
2018-12-10T21:32:00.364Z,7.90
2018-12-10T21:34:28.802Z,8.00
2018-12-10T21:36:57.300Z,7.90
2018-12-10T21:39:25.768Z,7.90
2018-12-10T21:41:54.342Z,8.00
2018-12-10T21:44:22.820Z,8.00
2018-12-10T21:46:51.497Z,8.00
2018-12-10T21:49:19.945Z,7.90
2018-12-10T21:51:48.464Z,7.90
2018-12-10T21:54:16.923Z,7.90
2018-12-10T21:56:45.505Z,7.90
2018-12-10T21:59:14.125Z,7.90
2018-12-10T22:01:42.653Z,7.90
2018-12-10T22:04:11.084Z,7.90
2018-12-10T22:06:39.600Z,7.90
2018-12-10T22:09:08.101Z,7.90
2018-12-10T22:11:36.716Z,7.90
2018-12-10T22:14:05.227Z,7.90
2018-12-10T22:16:33.827Z,7.90
2018-12-10T22:19:02.297Z,7.90
2018-12-10T22:21:30.962Z,7.90
2018-12-10T22:23:59.507Z,7.90
2018-12-10T22:26:28.194Z,7.90
2018-12-10T22:28:57.401Z,7.90
2018-12-10T22:31:25.999Z,7.90
2018-12-10T22:33:54.529Z,7.90
2018-12-10T22:36:23.005Z,7.80
2018-12-10T22:38:51.431Z,7.90
2018-12-10T22:41:19.865Z,7.90
2018-12-10T22:43:48.391Z,7.80
2018-12-10T22:46:16.834Z,7.80
2018-12-10T22:48:45.258Z,7.80
2018-12-10T22:51:13.818Z,7.80
2018-12-10T22:53:42.244Z,7.80
2018-12-10T22:56:10.708Z,7.80
2018-12-10T22:58:39.208Z,7.80
2018-12-10T23:01:07.980Z,7.80
2018-12-10T23:03:36.432Z,7.70
2018-12-10T23:06:04.907Z,7.70
2018-12-10T23:08:33.387Z,7.70
2018-12-10T23:11:01.817Z,7.70
2018-12-10T23:13:30.479Z,7.70
2018-12-10T23:15:58.914Z,7.70
2018-12-10T23:18:27.606Z,7.70
2018-12-10T23:20:56.259Z,7.70
2018-12-10T23:23:24.875Z,7.70
2018-12-10T23:25:53.296Z,7.70
2018-12-10T23:28:21.783Z,7.60
2018-12-10T23:30:50.229Z,7.70
2018-12-10T23:33:18.675Z,7.70
2018-12-10T23:35:47.274Z,7.70
2018-12-10T23:38:15.857Z,7.60
2018-12-10T23:40:44.342Z,7.70
2018-12-10T23:43:17.982Z,7.60
2018-12-10T23:45:46.403Z,7.60
2018-12-10T23:48:14.859Z,7.60
2018-12-10T23:50:43.327Z,7.60
2018-12-10T23:53:11.795Z,7.60
2018-12-10T23:55:40.239Z,7.60
2018-12-10T23:58:08.769Z,7.60
